sensor_id;sensor_type;location;lat;lon;timestamp;pressure;altitude;pressure_sealevel;temperature;humidity
47716;BME280;33476;50.984;3.538;2022-12-08T00:01:04;101372.34;;;6.98;70.05
47716;BME280;33476;50.984;3.538;2022-12-08T00:03:29;101371.38;;;7.02;69.18
47716;BME280;33476;50.984;3.538;2022-12-08T00:05:54;101376.63;;;7.01;69.61
47716;BME280;33476;50.984;3.538;2022-12-08T00:08:38;101368.91;;;6.98;69.20
47716;BME280;33476;50.984;3.538;2022-12-08T00:11:22;101365.50;;;6.96;69.96
47716;BME280;33476;50.984;3.538;2022-12-08T00:13:47;101364.72;;;6.92;69.94
47716;BME280;33476;50.984;3.538;2022-12-08T00:16:12;101365.66;;;6.90;70.03
47716;BME280;33476;50.984;3.538;2022-12-08T00:18:38;101361.34;;;6.89;69.88
47716;BME280;33476;50.984;3.538;2022-12-08T00:21:03;101354.41;;;6.89;69.81
47716;BME280;33476;50.984;3.538;2022-12-08T00:23:29;101346.66;;;6.88;70.06
47716;BME280;33476;50.984;3.538;2022-12-08T00:25:54;101351.88;;;6.86;70.26
47716;BME280;33476;50.984;3.538;2022-12-08T00:28:20;101346.66;;;6.88;69.46
47716;BME280;33476;50.984;3.538;2022-12-08T00:30:45;101341.47;;;6.86;69.67
47716;BME280;33476;50.984;3.538;2022-12-08T00:33:10;101338.16;;;6.81;70.46
47716;BME280;33476;50.984;3.538;2022-12-08T00:35:36;101337.22;;;6.84;69.56
47716;BME280;33476;50.984;3.538;2022-12-08T00:38:02;101344.06;;;6.86;69.66
47716;BME280;33476;50.984;3.538;2022-12-08T00:40:27;101339.81;;;6.84;69.99
47716;BME280;33476;50.984;3.538;2022-12-08T00:42:53;101339.81;;;6.84;69.84
47716;BME280;33476;50.984;3.538;2022-12-08T00:45:18;101338.28;;;6.75;69.71
47716;BME280;33476;50.984;3.538;2022-12-08T00:47:44;101342.53;;;6.79;69.74
47716;BME280;33476;50.984;3.538;2022-12-08T00:50:09;101332.03;;;6.84;70.03
47716;BME280;33476;50.984;3.538;2022-12-08T00:52:36;101331.19;;;6.83;69.70
47716;BME280;33476;50.984;3.538;2022-12-08T00:55:01;101336.38;;;6.83;69.38
47716;BME280;33476;50.984;3.538;2022-12-08T00:57:27;101328.53;;;6.85;69.77
47716;BME280;33476;50.984;3.538;2022-12-08T00:59:52;101325.22;;;6.80;69.85
47716;BME280;33476;50.984;3.538;2022-12-08T01:02:17;101316.72;;;6.73;69.56
47716;BME280;33476;50.984;3.538;2022-12-08T01:04:44;101320.13;;;6.75;69.94
47716;BME280;33476;50.984;3.538;2022-12-08T01:07:09;101323.53;;;6.77;69.84
47716;BME280;33476;50.984;3.538;2022-12-08T01:09:34;101321.78;;;6.79;69.54
47716;BME280;33476;50.984;3.538;2022-12-08T01:12:00;101320.00;;;6.81;69.76
47716;BME280;33476;50.984;3.538;2022-12-08T01:14:25;101313.06;;;6.82;69.62
47716;BME280;33476;50.984;3.538;2022-12-08T01:16:51;101311.31;;;6.82;69.53
47716;BME280;33476;50.984;3.538;2022-12-08T01:19:16;101305.25;;;6.82;69.61
47716;BME280;33476;50.984;3.538;2022-12-08T01:21:43;101312.09;;;6.84;69.26
47716;BME280;33476;50.984;3.538;2022-12-08T01:24:12;101308.63;;;6.85;69.61
47716;BME280;33476;50.984;3.538;2022-12-08T01:26:37;101307.00;;;6.81;69.80
47716;BME280;33476;50.984;3.538;2022-12-08T01:29:03;101307.84;;;6.82;69.60
47716;BME280;33476;50.984;3.538;2022-12-08T01:31:28;101300.88;;;6.84;69.56
47716;BME280;33476;50.984;3.538;2022-12-08T01:33:53;101306.06;;;6.84;69.46
47716;BME280;33476;50.984;3.538;2022-12-08T01:36:21;101307.84;;;6.82;69.40
47716;BME280;33476;50.984;3.538;2022-12-08T01:38:47;101302.63;;;6.83;69.45
47716;BME280;33476;50.984;3.538;2022-12-08T01:41:15;101299.97;;;6.85;69.34
47716;BME280;33476;50.984;3.538;2022-12-08T01:46:40;101298.22;;;6.85;68.48
47716;BME280;33476;50.984;3.538;2022-12-08T01:49:10;101292.31;;;6.80;68.89
47716;BME280;33476;50.984;3.538;2022-12-08T01:54:28;101298.47;;;6.76;68.52
47716;BME280;33476;50.984;3.538;2022-12-08T01:57:03;101290.72;;;6.74;68.70
47716;BME280;33476;50.984;3.538;2022-12-08T01:59:32;101285.63;;;6.70;69.19
47716;BME280;33476;50.984;3.538;2022-12-08T02:01:58;101289.97;;;6.71;68.49
47716;BME280;33476;50.984;3.538;2022-12-08T02:04:23;101287.34;;;6.71;68.61
47716;BME280;33476;50.984;3.538;2022-12-08T02:06:50;101290.00;;;6.68;68.83
47716;BME280;33476;50.984;3.538;2022-12-08T02:09:15;101286.66;;;6.64;69.08
47716;BME280;33476;50.984;3.538;2022-12-08T02:11:41;101296.19;;;6.64;69.13
47716;BME280;33476;50.984;3.538;2022-12-08T02:14:07;101293.63;;;6.61;68.67
47716;BME280;33476;50.984;3.538;2022-12-08T02:16:38;101286.75;;;6.60;68.52
47716;BME280;33476;50.984;3.538;2022-12-08T02:21:56;101286.06;;;6.52;68.86
47716;BME280;33476;50.984;3.538;2022-12-08T02:24:37;101289.47;;;6.55;68.43
47716;BME280;33476;50.984;3.538;2022-12-08T02:36:04;101286.25;;;6.44;68.48
47716;BME280;33476;50.984;3.538;2022-12-08T02:41:19;101273.47;;;6.36;68.29
47716;BME280;33476;50.984;3.538;2022-12-08T02:44:11;101275.19;;;6.37;68.15
47716;BME280;33476;50.984;3.538;2022-12-08T02:46:39;101270.84;;;6.36;68.34
47716;BME280;33476;50.984;3.538;2022-12-08T02:49:07;101273.44;;;6.38;68.12
47716;BME280;33476;50.984;3.538;2022-12-08T02:51:33;101266.56;;;6.35;67.97
47716;BME280;33476;50.984;3.538;2022-12-08T02:53:59;101263.16;;;6.33;67.99
47716;BME280;33476;50.984;3.538;2022-12-08T03:05:12;101242.50;;;6.29;68.05
47716;BME280;33476;50.984;3.538;2022-12-08T03:13:38;101229.66;;;6.24;68.18
47716;BME280;33476;50.984;3.538;2022-12-08T03:16:07;101227.81;;;6.28;68.15
47716;BME280;33476;50.984;3.538;2022-12-08T03:18:36;101224.34;;;6.29;67.92
47716;BME280;33476;50.984;3.538;2022-12-08T03:21:05;101227.16;;;6.19;68.51
47716;BME280;33476;50.984;3.538;2022-12-08T03:23:31;101221.97;;;6.21;68.52
47716;BME280;33476;50.984;3.538;2022-12-08T03:26:03;101214.19;;;6.19;68.23
47716;BME280;33476;50.984;3.538;2022-12-08T03:28:32;101214.13;;;6.23;68.44
47716;BME280;33476;50.984;3.538;2022-12-08T03:31:01;101220.34;;;6.15;68.44
47716;BME280;33476;50.984;3.538;2022-12-08T03:33:32;101215.28;;;6.09;68.38
47716;BME280;33476;50.984;3.538;2022-12-08T03:36:01;101210.91;;;6.11;68.69
47716;BME280;33476;50.984;3.538;2022-12-08T03:38:40;101209.31;;;6.07;68.67
47716;BME280;33476;50.984;3.538;2022-12-08T03:41:05;101217.88;;;6.09;68.40
47716;BME280;33476;50.984;3.538;2022-12-08T03:44:03;101223.38;;;5.97;68.82
47716;BME280;33476;50.984;3.538;2022-12-08T03:46:29;101225.84;;;6.02;68.88
47716;BME280;33476;50.984;3.538;2022-12-08T03:48:55;101219.94;;;5.97;69.13
47716;BME280;33476;50.984;3.538;2022-12-08T03:51:21;101223.41;;;5.94;68.98
47716;BME280;33476;50.984;3.538;2022-12-08T03:53:47;101216.53;;;5.93;69.06
47716;BME280;33476;50.984;3.538;2022-12-08T03:58:44;101209.75;;;5.86;69.43
47716;BME280;33476;50.984;3.538;2022-12-08T04:01:10;101209.69;;;5.89;69.14
47716;BME280;33476;50.984;3.538;2022-12-08T04:03:35;101210.53;;;5.91;68.78
47716;BME280;33476;50.984;3.538;2022-12-08T04:06:00;101200.22;;;5.88;68.89
47716;BME280;33476;50.984;3.538;2022-12-08T04:08:26;101201.97;;;5.86;69.00
47716;BME280;33476;50.984;3.538;2022-12-08T04:10:51;101205.53;;;5.82;68.88
47716;BME280;33476;50.984;3.538;2022-12-08T04:13:16;101197.72;;;5.83;68.80
47716;BME280;33476;50.984;3.538;2022-12-08T04:15:46;101195.19;;;5.80;69.06
47716;BME280;33476;50.984;3.538;2022-12-08T04:18:12;101199.41;;;5.84;69.02
47716;BME280;33476;50.984;3.538;2022-12-08T04:20:39;101189.00;;;5.86;69.21
47716;BME280;33476;50.984;3.538;2022-12-08T04:23:05;101191.53;;;5.89;68.90
47716;BME280;33476;50.984;3.538;2022-12-08T04:25:30;101185.47;;;5.91;68.98
47716;BME280;33476;50.984;3.538;2022-12-08T04:27:56;101189.66;;;5.97;68.73
47716;BME280;33476;50.984;3.538;2022-12-08T04:30:21;101181.91;;;5.96;68.43
47716;BME280;33476;50.984;3.538;2022-12-08T04:32:46;101187.06;;;5.97;69.04
47716;BME280;33476;50.984;3.538;2022-12-08T04:35:12;101172.38;;;5.98;68.82
47716;BME280;33476;50.984;3.538;2022-12-08T04:37:37;101180.91;;;6.01;68.66
47716;BME280;33476;50.984;3.538;2022-12-08T04:40:03;101178.34;;;6.00;68.86
47716;BME280;33476;50.984;3.538;2022-12-08T04:42:28;101179.16;;;6.02;68.56
47716;BME280;33476;50.984;3.538;2022-12-08T04:44:53;101180.06;;;6.01;68.44
47716;BME280;33476;50.984;3.538;2022-12-08T04:47:19;101170.59;;;6.00;68.66
47716;BME280;33476;50.984;3.538;2022-12-08T04:49:46;101172.31;;;5.99;68.44
47716;BME280;33476;50.984;3.538;2022-12-08T04:52:11;101170.53;;;6.01;68.67
47716;BME280;33476;50.984;3.538;2022-12-08T04:54:36;101167.91;;;6.03;68.70
47716;BME280;33476;50.984;3.538;2022-12-08T04:57:02;101162.72;;;6.04;68.55
47716;BME280;33476;50.984;3.538;2022-12-08T04:59:27;101158.38;;;6.03;68.50
47716;BME280;33476;50.984;3.538;2022-12-08T05:01:52;101161.94;;;5.99;68.83
47716;BME280;33476;50.984;3.538;2022-12-08T05:04:18;101155.91;;;5.99;68.41
47716;BME280;33476;50.984;3.538;2022-12-08T05:06:43;101152.47;;;5.98;68.49
47716;BME280;33476;50.984;3.538;2022-12-08T05:09:08;101156.72;;;6.01;68.84
47716;BME280;33476;50.984;3.538;2022-12-08T05:11:34;101146.28;;;6.04;68.63
47716;BME280;33476;50.984;3.538;2022-12-08T05:13:59;101147.16;;;6.04;68.40
47716;BME280;33476;50.984;3.538;2022-12-08T05:16:24;101147.25;;;6.00;68.55
47716;BME280;33476;50.984;3.538;2022-12-08T05:18:50;101136.78;;;6.03;68.86
47716;BME280;33476;50.984;3.538;2022-12-08T05:21:15;101141.88;;;6.07;68.93
47716;BME280;33476;50.984;3.538;2022-12-08T05:23:40;101137.44;;;6.12;68.38
47716;BME280;33476;50.984;3.538;2022-12-08T05:26:06;101140.03;;;6.12;67.94
47716;BME280;33476;50.984;3.538;2022-12-08T05:28:31;101136.56;;;6.12;68.61
47716;BME280;33476;50.984;3.538;2022-12-08T05:30:57;101136.56;;;6.13;68.36
47716;BME280;33476;50.984;3.538;2022-12-08T05:33:23;101126.09;;;6.16;68.48
47716;BME280;33476;50.984;3.538;2022-12-08T05:35:48;101129.44;;;6.20;68.61
47716;BME280;33476;50.984;3.538;2022-12-08T05:38:13;101125.94;;;6.23;68.80
47716;BME280;33476;50.984;3.538;2022-12-08T05:40:40;101116.47;;;6.20;68.64
47716;BME280;33476;50.984;3.538;2022-12-08T05:43:06;101122.47;;;6.24;68.68
47716;BME280;33476;50.984;3.538;2022-12-08T05:45:32;101119.72;;;6.28;68.64
47716;BME280;33476;50.984;3.538;2022-12-08T05:47:58;101111.94;;;6.28;68.86
47716;BME280;33476;50.984;3.538;2022-12-08T05:50:23;101113.69;;;6.28;68.99
47716;BME280;33476;50.984;3.538;2022-12-08T05:52:48;101107.56;;;6.32;68.77
47716;BME280;33476;50.984;3.538;2022-12-08T05:55:14;101114.34;;;6.37;68.72
47716;BME280;33476;50.984;3.538;2022-12-08T05:57:39;101106.50;;;6.39;68.70
47716;BME280;33476;50.984;3.538;2022-12-08T06:00:05;101104.88;;;6.35;69.01
47716;BME280;33476;50.984;3.538;2022-12-08T06:02:30;101100.53;;;6.35;68.92
47716;BME280;33476;50.984;3.538;2022-12-08T06:04:56;101096.19;;;6.37;68.81
47716;BME280;33476;50.984;3.538;2022-12-08T06:07:21;101097.88;;;6.38;68.78
47716;BME280;33476;50.984;3.538;2022-12-08T06:09:46;101097.78;;;6.41;68.73
47716;BME280;33476;50.984;3.538;2022-12-08T06:12:11;101095.13;;;6.43;68.80
47716;BME280;33476;50.984;3.538;2022-12-08T06:14:38;101095.13;;;6.43;68.68
47716;BME280;33476;50.984;3.538;2022-12-08T06:17:03;101090.00;;;6.41;68.88
47716;BME280;33476;50.984;3.538;2022-12-08T06:19:28;101094.25;;;6.44;69.06
47716;BME280;33476;50.984;3.538;2022-12-08T06:21:54;101086.47;;;6.44;68.74
47716;BME280;33476;50.984;3.538;2022-12-08T06:24:19;101091.63;;;6.45;68.97
47716;BME280;33476;50.984;3.538;2022-12-08T06:26:44;101091.63;;;6.45;68.95
47716;BME280;33476;50.984;3.538;2022-12-08T06:29:11;101092.50;;;6.44;69.10
47716;BME280;33476;50.984;3.538;2022-12-08T06:31:37;101090.75;;;6.46;68.75
47716;BME280;33476;50.984;3.538;2022-12-08T06:34:02;101099.28;;;6.50;68.67
47716;BME280;33476;50.984;3.538;2022-12-08T06:36:27;101096.59;;;6.53;68.46
47716;BME280;33476;50.984;3.538;2022-12-08T06:38:53;101099.25;;;6.52;68.76
47716;BME280;33476;50.984;3.538;2022-12-08T06:41:18;101097.69;;;6.44;68.82
47716;BME280;33476;50.984;3.538;2022-12-08T06:43:44;101093.34;;;6.46;69.29
47716;BME280;33476;50.984;3.538;2022-12-08T06:46:12;101097.69;;;6.46;68.63
47716;BME280;33476;50.984;3.538;2022-12-08T06:48:38;101111.66;;;6.40;68.96
47716;BME280;33476;50.984;3.538;2022-12-08T06:51:12;101107.31;;;6.41;69.56
47716;BME280;33476;50.984;3.538;2022-12-08T06:53:38;101103.72;;;6.46;68.71
47716;BME280;33476;50.984;3.538;2022-12-08T06:56:04;101101.13;;;6.46;68.66
47716;BME280;33476;50.984;3.538;2022-12-08T06:58:30;101097.53;;;6.51;69.20
47716;BME280;33476;50.984;3.538;2022-12-08T07:00:55;101105.22;;;6.55;69.18
47716;BME280;33476;50.984;3.538;2022-12-08T07:03:21;101106.16;;;6.51;68.87
47716;BME280;33476;50.984;3.538;2022-12-08T07:05:46;101100.22;;;6.47;69.37
47716;BME280;33476;50.984;3.538;2022-12-08T07:08:11;101089.91;;;6.44;68.87
47716;BME280;33476;50.984;3.538;2022-12-08T07:10:37;101089.09;;;6.42;69.11
47716;BME280;33476;50.984;3.538;2022-12-08T07:13:03;101082.97;;;6.45;68.57
47716;BME280;33476;50.984;3.538;2022-12-08T07:15:28;101086.22;;;6.53;68.18
47716;BME280;33476;50.984;3.538;2022-12-08T07:17:53;101093.00;;;6.59;68.68
47716;BME280;33476;50.984;3.538;2022-12-08T07:20:19;101095.69;;;6.56;68.19
47716;BME280;33476;50.984;3.538;2022-12-08T07:22:51;101091.34;;;6.56;67.86
47716;BME280;33476;50.984;3.538;2022-12-08T07:25:17;101086.84;;;6.61;68.08
47716;BME280;33476;50.984;3.538;2022-12-08T07:27:43;101083.31;;;6.65;67.02
47716;BME280;33476;50.984;3.538;2022-12-08T07:30:09;101081.50;;;6.67;67.46
47716;BME280;33476;50.984;3.538;2022-12-08T07:32:36;101086.75;;;6.66;66.99
47716;BME280;33476;50.984;3.538;2022-12-08T07:35:01;101087.50;;;6.69;66.90
47716;BME280;33476;50.984;3.538;2022-12-08T07:37:27;101084.03;;;6.70;66.83
47716;BME280;33476;50.984;3.538;2022-12-08T07:39:52;101084.78;;;6.74;66.79
47716;BME280;33476;50.984;3.538;2022-12-08T07:42:17;101091.81;;;6.70;66.81
47716;BME280;33476;50.984;3.538;2022-12-08T07:44:43;101085.09;;;6.63;67.05
47716;BME280;33476;50.984;3.538;2022-12-08T07:47:08;101091.28;;;6.58;66.84
47716;BME280;33476;50.984;3.538;2022-12-08T07:49:33;101090.34;;;6.60;67.20
47716;BME280;33476;50.984;3.538;2022-12-08T07:51:58;101091.19;;;6.61;67.05
47716;BME280;33476;50.984;3.538;2022-12-08T07:54:24;101081.84;;;6.55;67.72
47716;BME280;33476;50.984;3.538;2022-12-08T07:56:49;101080.19;;;6.53;67.88
47716;BME280;33476;50.984;3.538;2022-12-08T07:59:14;101081.81;;;6.57;67.77
47716;BME280;33476;50.984;3.538;2022-12-08T08:01:40;101079.06;;;6.61;68.31
47716;BME280;33476;50.984;3.538;2022-12-08T08:04:05;101078.97;;;6.66;68.04
47716;BME280;33476;50.984;3.538;2022-12-08T08:06:32;101083.22;;;6.68;67.79
47716;BME280;33476;50.984;3.538;2022-12-08T08:08:57;101082.34;;;6.68;67.83
47716;BME280;33476;50.984;3.538;2022-12-08T08:11:23;101076.38;;;6.66;67.51
47716;BME280;33476;50.984;3.538;2022-12-08T08:13:49;101077.25;;;6.65;67.69
47716;BME280;33476;50.984;3.538;2022-12-08T08:16:15;101079.13;;;6.60;68.02
47716;BME280;33476;50.984;3.538;2022-12-08T08:18:41;101081.16;;;6.48;68.40
47716;BME280;33476;50.984;3.538;2022-12-08T08:21:07;101078.69;;;6.44;68.23
47716;BME280;33476;50.984;3.538;2022-12-08T08:23:32;101076.22;;;6.39;68.23
47716;BME280;33476;50.984;3.538;2022-12-08T08:26:03;101074.63;;;6.34;68.37
47716;BME280;33476;50.984;3.538;2022-12-08T08:28:29;101072.84;;;6.36;68.29
47716;BME280;33476;50.984;3.538;2022-12-08T08:30:55;101067.78;;;6.31;68.47
47716;BME280;33476;50.984;3.538;2022-12-08T08:33:20;101073.03;;;6.30;68.17
47716;BME280;33476;50.984;3.538;2022-12-08T08:35:45;101070.25;;;6.36;67.99
47716;BME280;33476;50.984;3.538;2022-12-08T08:38:11;101072.59;;;6.45;67.79
47716;BME280;33476;50.984;3.538;2022-12-08T08:40:36;101069.97;;;6.46;67.20
47716;BME280;33476;50.984;3.538;2022-12-08T08:43:03;101068.50;;;6.38;67.31
47716;BME280;33476;50.984;3.538;2022-12-08T08:45:28;101067.63;;;6.37;67.57
47716;BME280;33476;50.984;3.538;2022-12-08T08:47:54;101065.03;;;6.37;67.75
47716;BME280;33476;50.984;3.538;2022-12-08T08:50:19;101065.91;;;6.38;67.44
47716;BME280;33476;50.984;3.538;2022-12-08T08:52:44;101067.66;;;6.36;67.34
47716;BME280;33476;50.984;3.538;2022-12-08T08:55:10;101066.84;;;6.34;67.72
47716;BME280;33476;50.984;3.538;2022-12-08T08:57:35;101071.09;;;6.36;67.14
47716;BME280;33476;50.984;3.538;2022-12-08T09:00:02;101062.44;;;6.37;67.54
47716;BME280;33476;50.984;3.538;2022-12-08T09:02:28;101068.50;;;6.38;67.02
47716;BME280;33476;50.984;3.538;2022-12-08T09:04:53;101068.44;;;6.39;67.09
47716;BME280;33476;50.984;3.538;2022-12-08T09:07:19;101068.50;;;6.38;67.26
47716;BME280;33476;50.984;3.538;2022-12-08T09:09:44;101065.91;;;6.38;67.17
47716;BME280;33476;50.984;3.538;2022-12-08T09:12:10;101067.59;;;6.39;67.28
47716;BME280;33476;50.984;3.538;2022-12-08T09:14:36;101067.53;;;6.40;66.84
47716;BME280;33476;50.984;3.538;2022-12-08T09:17:01;101063.84;;;6.49;66.99
47716;BME280;33476;50.984;3.538;2022-12-08T09:19:26;101064.59;;;6.84;66.63
47716;BME280;33476;50.984;3.538;2022-12-08T09:21:52;101059.28;;;7.18;65.50
47716;BME280;33476;50.984;3.538;2022-12-08T09:24:17;101055.59;;;7.25;64.94
47716;BME280;33476;50.984;3.538;2022-12-08T09:26:43;101057.53;;;7.18;65.34
47716;BME280;33476;50.984;3.538;2022-12-08T09:29:10;101057.75;;;7.11;65.39
47716;BME280;33476;50.984;3.538;2022-12-08T09:31:36;101055.50;;;7.28;65.50
47716;BME280;33476;50.984;3.538;2022-12-08T09:34:02;101057.56;;;7.46;64.99
47716;BME280;33476;50.984;3.538;2022-12-08T09:36:28;101058.56;;;7.69;64.76
47716;BME280;33476;50.984;3.538;2022-12-08T09:38:53;101058.91;;;8.11;63.66
47716;BME280;33476;50.984;3.538;2022-12-08T09:41:32;101052.97;;;8.57;63.09
47716;BME280;33476;50.984;3.538;2022-12-08T09:46:50;101059.72;;;8.63;62.47
47716;BME280;33476;50.984;3.538;2022-12-08T09:49:20;101050.00;;;8.43;62.61
47716;BME280;33476;50.984;3.538;2022-12-08T09:51:47;101046.06;;;8.31;63.18
47716;BME280;33476;50.984;3.538;2022-12-08T09:56:38;101043.50;;;8.05;64.34
47716;BME280;33476;50.984;3.538;2022-12-08T09:59:22;101043.72;;;7.99;64.23
47716;BME280;33476;50.984;3.538;2022-12-08T10:01:51;101044.75;;;7.93;64.51
47716;BME280;33476;50.984;3.538;2022-12-08T10:04:28;101042.91;;;7.97;64.62
47716;BME280;33476;50.984;3.538;2022-12-08T10:06:59;101037.47;;;8.29;63.98
47716;BME280;33476;50.984;3.538;2022-12-08T10:12:26;101023.66;;;8.99;61.81
47716;BME280;33476;50.984;3.538;2022-12-08T10:15:34;101021.50;;;9.54;60.63
47716;BME280;33476;50.984;3.538;2022-12-08T10:18:10;101012.06;;;9.92;59.56
47716;BME280;33476;50.984;3.538;2022-12-08T10:20:39;101013.00;;;10.32;58.86
47716;BME280;33476;50.984;3.538;2022-12-08T10:23:17;101013.50;;;10.60;58.07
47716;BME280;33476;50.984;3.538;2022-12-08T10:26:06;101008.56;;;10.92;57.37
47716;BME280;33476;50.984;3.538;2022-12-08T10:28:31;101006.56;;;11.16;56.46
47716;BME280;33476;50.984;3.538;2022-12-08T10:30:57;101015.44;;;11.31;56.23
47716;BME280;33476;50.984;3.538;2022-12-08T10:33:22;101004.09;;;11.49;55.80
47716;BME280;33476;50.984;3.538;2022-12-08T10:35:53;101002.13;;;11.54;55.53
47716;BME280;33476;50.984;3.538;2022-12-08T10:41:02;101002.06;;;11.73;55.02
47716;BME280;33476;50.984;3.538;2022-12-08T10:43:29;100999.63;;;11.87;54.71
47716;BME280;33476;50.984;3.538;2022-12-08T10:46:07;100996.94;;;11.89;54.49
47716;BME280;33476;50.984;3.538;2022-12-08T10:48:33;100999.06;;;11.98;54.62
47716;BME280;33476;50.984;3.538;2022-12-08T10:50:59;100989.69;;;12.11;54.13
47716;BME280;33476;50.984;3.538;2022-12-08T10:53:30;100991.16;;;12.17;53.35
47716;BME280;33476;50.984;3.538;2022-12-08T10:58:28;100986.06;;;12.47;52.97
47716;BME280;33476;50.984;3.538;2022-12-08T11:01:04;100979.41;;;12.57;52.33
47716;BME280;33476;50.984;3.538;2022-12-08T11:03:36;100980.09;;;12.60;52.29
47716;BME280;33476;50.984;3.538;2022-12-08T11:06:11;100980.94;;;12.61;52.10
47716;BME280;33476;50.984;3.538;2022-12-08T11:08:48;100974.94;;;12.59;52.04
47716;BME280;33476;50.984;3.538;2022-12-08T11:11:15;100971.13;;;12.64;51.98
47716;BME280;33476;50.984;3.538;2022-12-08T11:13:41;100973.00;;;12.62;51.99
47716;BME280;33476;50.984;3.538;2022-12-08T11:16:06;100963.63;;;12.58;51.97
47716;BME280;33476;50.984;3.538;2022-12-08T11:18:44;100960.22;;;12.56;51.54
47716;BME280;33476;50.984;3.538;2022-12-08T11:21:16;100963.00;;;12.53;51.40
47716;BME280;33476;50.984;3.538;2022-12-08T11:23:46;100963.00;;;12.53;51.12
47716;BME280;33476;50.984;3.538;2022-12-08T11:26:31;100961.06;;;12.57;51.22
47716;BME280;33476;50.984;3.538;2022-12-08T11:28:57;100952.28;;;12.58;50.97
47716;BME280;33476;50.984;3.538;2022-12-08T11:31:34;100950.66;;;12.55;50.83
47716;BME280;33476;50.984;3.538;2022-12-08T11:34:05;100944.06;;;12.64;50.91
47716;BME280;33476;50.984;3.538;2022-12-08T11:36:34;100951.00;;;12.65;50.42
47716;BME280;33476;50.984;3.538;2022-12-08T11:39:02;100945.63;;;12.68;50.45
47716;BME280;33476;50.984;3.538;2022-12-08T11:41:36;100942.06;;;12.69;50.17
47716;BME280;33476;50.984;3.538;2022-12-08T11:49:38;100943.44;;;12.27;50.82
47716;BME280;33476;50.984;3.538;2022-12-08T11:55:01;100941.56;;;11.44;52.26
47716;BME280;33476;50.984;3.538;2022-12-08T11:57:27;100938.38;;;11.20;52.78
47716;BME280;33476;50.984;3.538;2022-12-08T11:59:55;100935.09;;;10.98;52.81
47716;BME280;33476;50.984;3.538;2022-12-08T12:02:26;100938.59;;;10.80;53.54
47716;BME280;33476;50.984;3.538;2022-12-08T12:04:57;100936.59;;;10.66;53.85
47716;BME280;33476;50.984;3.538;2022-12-08T12:13:26;100917.06;;;10.17;54.98
47716;BME280;33476;50.984;3.538;2022-12-08T12:15:52;100922.78;;;10.06;54.64
47716;BME280;33476;50.984;3.538;2022-12-08T12:18:41;100918.22;;;9.91;55.00
47716;BME280;33476;50.984;3.538;2022-12-08T12:24:02;100914.66;;;9.73;54.92
47716;BME280;33476;50.984;3.538;2022-12-08T12:26:31;100910.81;;;9.61;55.26
47716;BME280;33476;50.984;3.538;2022-12-08T12:29:05;100910.00;;;9.59;55.51
47716;BME280;33476;50.984;3.538;2022-12-08T12:31:32;100914.88;;;9.68;55.16
47716;BME280;33476;50.984;3.538;2022-12-08T12:34:10;100908.78;;;9.68;55.49
47716;BME280;33476;50.984;3.538;2022-12-08T12:37:04;100902.78;;;9.66;55.29
47716;BME280;33476;50.984;3.538;2022-12-08T12:39:34;100909.69;;;9.67;55.56
47716;BME280;33476;50.984;3.538;2022-12-08T12:42:35;100914.38;;;9.58;55.53
47716;BME280;33476;50.984;3.538;2022-12-08T12:52:58;100910.09;;;9.57;55.51
47716;BME280;33476;50.984;3.538;2022-12-08T12:55:26;100903.25;;;9.55;55.58
47716;BME280;33476;50.984;3.538;2022-12-08T12:57:55;100909.38;;;9.54;55.86
47716;BME280;33476;50.984;3.538;2022-12-08T13:00:25;100901.56;;;9.54;55.71
47716;BME280;33476;50.984;3.538;2022-12-08T13:02:56;100904.16;;;9.54;55.86
47716;BME280;33476;50.984;3.538;2022-12-08T13:05:26;100904.34;;;9.49;55.74
47716;BME280;33476;50.984;3.538;2022-12-08T13:07:59;100901.22;;;9.41;55.92
47716;BME280;33476;50.984;3.538;2022-12-08T13:15:36;100905.88;;;9.33;56.01
47716;BME280;33476;50.984;3.538;2022-12-08T13:18:03;100910.09;;;9.37;56.45
47716;BME280;33476;50.984;3.538;2022-12-08T13:20:29;100912.56;;;9.40;56.66
47716;BME280;33476;50.984;3.538;2022-12-08T13:23:01;100913.00;;;9.50;56.64
47716;BME280;33476;50.984;3.538;2022-12-08T13:30:45;100932.16;;;9.28;57.37
47716;BME280;33476;50.984;3.538;2022-12-08T13:33:17;100932.78;;;9.13;58.30
47716;BME280;33476;50.984;3.538;2022-12-08T13:35:48;100926.63;;;8.94;59.03
47716;BME280;33476;50.984;3.538;2022-12-08T13:38:18;100933.25;;;8.79;59.81
47716;BME280;33476;50.984;3.538;2022-12-08T13:40:45;100929.31;;;8.69;60.20
47716;BME280;33476;50.984;3.538;2022-12-08T13:43:15;100929.78;;;8.57;60.73
47716;BME280;33476;50.984;3.538;2022-12-08T13:45:43;100925.69;;;8.50;60.60
47716;BME280;33476;50.984;3.538;2022-12-08T13:48:17;100921.63;;;8.42;60.77
47716;BME280;33476;50.984;3.538;2022-12-08T13:50:52;100914.94;;;8.35;61.17
47716;BME280;33476;50.984;3.538;2022-12-08T13:53:22;100915.09;;;8.31;61.42
47716;BME280;33476;50.984;3.538;2022-12-08T13:55:51;100905.75;;;8.25;61.20
47716;BME280;33476;50.984;3.538;2022-12-08T13:58:24;100900.03;;;8.15;61.27
47716;BME280;33476;50.984;3.538;2022-12-08T14:03:50;100902.66;;;8.15;61.67
47716;BME280;33476;50.984;3.538;2022-12-08T14:06:37;100896.88;;;8.07;62.51
47716;BME280;33476;50.984;3.538;2022-12-08T14:09:08;100894.28;;;8.07;62.06
47716;BME280;33476;50.984;3.538;2022-12-08T14:11:45;100881.47;;;8.01;62.19
47716;BME280;33476;50.984;3.538;2022-12-08T14:14:16;100897.31;;;7.95;61.23
47716;BME280;33476;50.984;3.538;2022-12-08T14:16:48;100895.72;;;7.91;61.65
47716;BME280;33476;50.984;3.538;2022-12-08T14:19:21;100905.44;;;7.86;62.40
47716;BME280;33476;50.984;3.538;2022-12-08T14:21:55;100899.56;;;7.81;62.00
47716;BME280;33476;50.984;3.538;2022-12-08T14:24:22;100903.06;;;7.80;62.44
47716;BME280;33476;50.984;3.538;2022-12-08T14:26:49;100892.59;;;7.81;62.82
47716;BME280;33476;50.984;3.538;2022-12-08T14:29:36;100889.44;;;7.73;63.26
47716;BME280;33476;50.984;3.538;2022-12-08T14:37:34;100882.59;;;7.71;62.35
47716;BME280;33476;50.984;3.538;2022-12-08T14:40:24;100888.69;;;7.70;62.67